createdAt,value
2022-12-20T00:01:23.166Z,100864.25
2022-12-20T00:06:25.213Z,100871.97
2022-12-20T00:11:27.568Z,100849.47
2022-12-20T00:16:29.747Z,100845.56
2022-12-20T00:21:33.405Z,100840.25
2022-12-20T00:26:35.775Z,100840.25
2022-12-20T00:31:37.361Z,100818.59
2022-12-20T00:36:40.141Z,100831.91
2022-12-20T00:41:41.948Z,100797.19
2022-12-20T00:46:43.368Z,100809.91
2022-12-20T00:51:44.841Z,100817.16
2022-12-20T00:56:46.227Z,100805.78
2022-12-20T01:01:47.869Z,100813.91
2022-12-20T01:06:49.541Z,100820.78
2022-12-20T01:11:50.918Z,100819.81
2022-12-20T01:16:52.384Z,100824.88
2022-12-20T01:21:53.870Z,100820.28
2022-12-20T01:26:55.231Z,100819.19
2022-12-20T01:31:56.585Z,100831.19
2022-12-20T01:36:57.962Z,100827.66
2022-12-20T01:41:59.348Z,100819.03
2022-12-20T01:47:00.838Z,100806.22
2022-12-20T01:52:13.588Z,100810.56
2022-12-20T01:57:20.792Z,100807.16
2022-12-20T02:02:22.901Z,100807.44
2022-12-20T02:07:29.069Z,100788.41
2022-12-20T02:12:38.047Z,100772.00
2022-12-20T02:17:47.051Z,100766.78
2022-12-20T02:23:06.920Z,100749.97
2022-12-20T02:28:30.573Z,100750.94
2022-12-20T02:33:31.969Z,100751.75
2022-12-20T02:38:35.968Z,100742.81
2022-12-20T02:43:59.723Z,100740.41
2022-12-20T02:49:08.121Z,100729.91
2022-12-20T02:54:09.563Z,100724.91
2022-12-20T02:59:39.660Z,100729.81
2022-12-20T03:04:42.269Z,100731.66
2022-12-20T03:09:45.506Z,100721.97
2022-12-20T03:14:46.873Z,100717.34
2022-12-20T03:19:48.377Z,100722.84
2022-12-20T03:24:50.085Z,100742.81
2022-12-20T03:29:51.490Z,100721.75
2022-12-20T03:34:52.857Z,100730.16
2022-12-20T03:39:54.192Z,100737.03
2022-12-20T03:44:55.593Z,100730.97
2022-12-20T03:49:57.346Z,100707.84
2022-12-20T03:54:58.735Z,100687.88
2022-12-20T04:00:00.161Z,100697.81
2022-12-20T04:05:01.595Z,100676.72
2022-12-20T04:10:03.371Z,100711.75
2022-12-20T04:15:05.159Z,100725.97
2022-12-20T04:20:18.953Z,100701.69
2022-12-20T04:25:21.238Z,100688.56
2022-12-20T04:30:22.711Z,100675.03
2022-12-20T04:35:24.063Z,100681.78
2022-12-20T04:40:25.433Z,100668.72
2022-12-20T04:45:26.869Z,100664.91
2022-12-20T04:50:28.284Z,100661.00
2022-12-20T04:55:29.710Z,100664.38
2022-12-20T05:00:31.340Z,100672.41
2022-12-20T05:05:32.843Z,100689.91
2022-12-20T05:10:34.224Z,100682.28
2022-12-20T05:15:35.691Z,100662.59
2022-12-20T05:20:37.292Z,100659.69
2022-12-20T05:26:10.246Z,100663.66
2022-12-20T05:31:11.717Z,100650.41
2022-12-20T05:36:13.201Z,100657.94
2022-12-20T05:41:14.543Z,100663.59
2022-12-20T05:46:15.909Z,100643.06
2022-12-20T05:51:17.598Z,100648.56
2022-12-20T05:56:18.991Z,100654.16
2022-12-20T06:01:20.412Z,100645.31
2022-12-20T06:06:21.890Z,100625.56
2022-12-20T06:11:29.589Z,100630.75
2022-12-20T06:16:31.786Z,100636.66
2022-12-20T06:21:33.496Z,100634.72
2022-12-20T06:26:37.804Z,100631.63
2022-12-20T06:31:39.383Z,100623.09
2022-12-20T06:36:40.764Z,100620.97
2022-12-20T06:41:42.136Z,100635.59
2022-12-20T06:46:43.576Z,100639.09
2022-12-20T06:51:45.016Z,100640.91
2022-12-20T06:56:46.402Z,100651.03
2022-12-20T07:01:47.930Z,100638.31
2022-12-20T07:06:49.432Z,100627.09
2022-12-20T07:11:50.814Z,100604.81
2022-12-20T07:16:52.264Z,100625.97
2022-12-20T07:21:53.668Z,100617.28
2022-12-20T07:26:55.127Z,100620.34
2022-12-20T07:31:56.609Z,100614.75
2022-12-20T07:36:58.847Z,100601.84
2022-12-20T07:42:00.437Z,100605.09
2022-12-20T07:47:02.651Z,100595.41
2022-12-20T07:52:05.767Z,100578.03
2022-12-20T07:57:16.102Z,100600.50
2022-12-20T08:02:25.922Z,100604.56
2022-12-20T08:07:29.797Z,100599.53
2022-12-20T08:12:31.342Z,100593.66
2022-12-20T08:17:32.766Z,100583.97
2022-12-20T08:22:34.681Z,100577.25
2022-12-20T08:27:36.111Z,100573.75
2022-12-20T08:32:38.139Z,100560.41
2022-12-20T08:37:39.485Z,100574.44
2022-12-20T08:42:40.866Z,100572.09
2022-12-20T08:47:42.243Z,100575.59
2022-12-20T08:52:43.607Z,100569.56
2022-12-20T08:57:44.964Z,100576.03
2022-12-20T09:02:48.187Z,100575.44
2022-12-20T09:07:49.721Z,100565.16
2022-12-20T09:12:51.128Z,100562.94
2022-12-20T09:17:52.489Z,100567.13
2022-12-20T09:22:53.914Z,100552.47
2022-12-20T09:27:56.489Z,100551.63
2022-12-20T09:32:57.848Z,100550.06
2022-12-20T09:38:10.886Z,100539.22
2022-12-20T09:43:13.416Z,100535.97
2022-12-20T09:48:19.932Z,100544.69
2022-12-20T09:53:59.127Z,100539.59
2022-12-20T09:59:06.788Z,100522.84
2022-12-20T10:04:15.727Z,100521.53
2022-12-20T10:09:36.894Z,100505.28
2022-12-20T10:14:50.317Z,100518.72
2022-12-20T10:20:13.380Z,100516.00
2022-12-20T10:25:22.837Z,100504.25
2022-12-20T10:30:27.083Z,100484.66
2022-12-20T10:35:41.003Z,100489.53
2022-12-20T10:41:20.200Z,100473.34
2022-12-20T10:46:10.563Z,100467.16
2022-12-20T10:51:16.525Z,100466.91
2022-12-20T10:56:22.756Z,100475.16
2022-12-20T11:01:28.758Z,100450.09
2022-12-20T11:06:39.052Z,100441.34
2022-12-20T11:11:57.690Z,100428.38
2022-12-20T11:17:04.026Z,100438.50
2022-12-20T11:22:29.795Z,100428.19
2022-12-20T11:27:42.496Z,100423.84
2022-12-20T11:33:05.117Z,100413.22
2022-12-20T11:38:17.423Z,100418.84
2022-12-20T11:44:22.769Z,100415.63
2022-12-20T11:49:13.632Z,100412.84
2022-12-20T11:54:32.738Z,100388.66
2022-12-20T11:59:57.592Z,100370.78
2022-12-20T12:05:06.193Z,100378.16
2022-12-20T12:10:16.664Z,100389.56
2022-12-20T12:15:31.797Z,100370.50
2022-12-20T12:20:48.329Z,100383.41
2022-12-20T12:25:49.954Z,100381.75
2022-12-20T12:31:03.664Z,100354.78
2022-12-20T12:36:38.753Z,100364.69
2022-12-20T12:41:52.167Z,100355.34
2022-12-20T12:47:01.424Z,100344.63
2022-12-20T12:52:05.245Z,100344.31
2022-12-20T12:57:15.771Z,100338.00
2022-12-20T13:02:17.755Z,100324.41
2022-12-20T13:07:39.949Z,100311.22
2022-12-20T13:12:41.270Z,100316.97
2022-12-20T13:17:51.936Z,100307.31
2022-12-20T13:23:07.309Z,100281.56
2022-12-20T13:28:23.858Z,100295.97
2022-12-20T13:33:46.670Z,100292.19
2022-12-20T13:38:48.005Z,100296.41
2022-12-20T13:43:51.600Z,100302.28
2022-12-20T13:49:03.015Z,100315.84
2022-12-20T13:54:07.010Z,100325.03
2022-12-20T13:59:23.480Z,100302.19
2022-12-20T14:04:28.096Z,100298.53
2022-12-20T14:09:37.835Z,100325.31
2022-12-20T14:14:50.254Z,100303.72
2022-12-20T14:20:06.957Z,100273.91
2022-12-20T14:25:09.461Z,100271.91
2022-12-20T14:30:27.154Z,100264.34
2022-12-20T14:35:28.928Z,100261.84
2022-12-20T14:40:30.420Z,100266.38
2022-12-20T14:45:31.740Z,100261.19
2022-12-20T14:50:35.888Z,100262.03
2022-12-20T14:55:44.304Z,100270.91
2022-12-20T15:00:57.636Z,100268.69
2022-12-20T15:06:00.481Z,100261.31
2022-12-20T15:11:17.866Z,100246.75
2022-12-20T15:16:26.732Z,100248.03
2022-12-20T15:21:42.696Z,100232.78
2022-12-20T15:26:44.184Z,100233.72
2022-12-20T15:31:47.368Z,100239.28
2022-12-20T15:36:48.796Z,100230.06
2022-12-20T15:41:50.429Z,100198.25
2022-12-20T15:46:52.261Z,100225.16
2022-12-20T15:51:55.333Z,100245.78
2022-12-20T15:56:58.823Z,100241.59
2022-12-20T16:02:00.654Z,100239.91
2022-12-20T16:07:03.577Z,100224.88
2022-12-20T16:12:16.083Z,100228.53
2022-12-20T16:17:17.567Z,100224.16
2022-12-20T16:22:21.971Z,100210.47
2022-12-20T16:27:23.457Z,100241.50
2022-12-20T16:32:24.829Z,100236.84
2022-12-20T16:37:26.202Z,100230.34
2022-12-20T16:42:27.585Z,100232.16
2022-12-20T16:47:28.945Z,100229.81
2022-12-20T16:52:30.527Z,100239.66
2022-12-20T16:57:32.406Z,100225.94
2022-12-20T17:02:35.010Z,100230.91
2022-12-20T17:07:41.210Z,100238.41
2022-12-20T17:12:43.119Z,100238.59
2022-12-20T17:17:44.676Z,100220.84
2022-12-20T17:22:49.658Z,100220.31
2022-12-20T17:27:51.732Z,100218.50
2022-12-20T17:32:53.829Z,100225.53
2022-12-20T17:37:57.261Z,100213.22
2022-12-20T17:42:58.632Z,100209.06
2022-12-20T17:48:00.123Z,100195.53
2022-12-20T17:53:01.589Z,100189.53
2022-12-20T17:58:03.003Z,100180.63
2022-12-20T18:03:04.540Z,100180.59
2022-12-20T18:08:06.055Z,100172.75
2022-12-20T18:13:07.430Z,100172.47
2022-12-20T18:18:09.171Z,100170.75
2022-12-20T18:23:10.537Z,100167.63
2022-12-20T18:28:11.901Z,100177.31
2022-12-20T18:33:13.270Z,100180.66
2022-12-20T18:38:16.381Z,100183.34
2022-12-20T18:43:17.759Z,100185.34
2022-12-20T18:48:19.140Z,100175.97
2022-12-20T18:53:20.592Z,100169.78
2022-12-20T18:58:21.937Z,100155.97
2022-12-20T19:03:23.328Z,100160.53
2022-12-20T19:08:26.051Z,100159.94
2022-12-20T19:13:27.404Z,100171.25
2022-12-20T19:18:28.832Z,100171.84
2022-12-20T19:23:30.189Z,100162.50
2022-12-20T19:28:32.342Z,100150.38
2022-12-20T19:33:37.274Z,100153.72
2022-12-20T19:38:47.264Z,100148.09
2022-12-20T19:43:50.426Z,100156.94
2022-12-20T19:48:53.704Z,100154.78
2022-12-20T19:53:56.661Z,100148.44
2022-12-20T19:58:57.988Z,100156.16
2022-12-20T20:04:00.390Z,100151.63
2022-12-20T20:09:01.835Z,100156.81
2022-12-20T20:14:03.912Z,100154.16
2022-12-20T20:19:05.557Z,100155.84
2022-12-20T20:24:08.685Z,100152.31
2022-12-20T20:29:10.384Z,100162.31
2022-12-20T20:34:12.340Z,100163.34
2022-12-20T20:39:13.727Z,100160.28
2022-12-20T20:44:15.121Z,100161.44
2022-12-20T20:49:16.829Z,100156.25
2022-12-20T20:54:18.181Z,100163.72
2022-12-20T20:59:21.585Z,100159.59
2022-12-20T21:04:22.975Z,100162.28
2022-12-20T21:09:24.339Z,100161.44
2022-12-20T21:14:43.791Z,100158.25
2022-12-20T21:19:46.996Z,100163.56
2022-12-20T21:24:48.539Z,100150.53
2022-12-20T21:29:50.343Z,100149.69
2022-12-20T21:34:51.734Z,100147.69
2022-12-20T21:39:53.578Z,100136.72
2022-12-20T21:44:54.911Z,100136.56
2022-12-20T21:49:57.293Z,100126.19
2022-12-20T21:54:58.656Z,100132.88
2022-12-20T21:59:59.980Z,100111.22
2022-12-20T22:05:01.338Z,100110.03
2022-12-20T22:10:02.807Z,100105.38
2022-12-20T22:15:04.539Z,100110.72
2022-12-20T22:20:06.761Z,100100.72
2022-12-20T22:25:08.552Z,100089.88
2022-12-20T22:30:10.447Z,100092.88
2022-12-20T22:35:11.868Z,100099.59
2022-12-20T22:40:13.333Z,100097.44
2022-12-20T22:45:14.944Z,100097.28
2022-12-20T22:50:16.472Z,100103.47
2022-12-20T22:55:18.105Z,100084.59
2022-12-20T23:00:19.701Z,100081.09
2022-12-20T23:05:21.081Z,100083.88
2022-12-20T23:10:41.113Z,100086.38
2022-12-20T23:15:42.614Z,100085.34
2022-12-20T23:21:08.289Z,100084.72
2022-12-20T23:26:14.794Z,100085.25
2022-12-20T23:31:16.193Z,100077.75
2022-12-20T23:36:17.591Z,100072.25
2022-12-20T23:41:19.112Z,100070.25
2022-12-20T23:46:22.126Z,100065.22
2022-12-20T23:51:23.591Z,100061.56
2022-12-20T23:56:25.211Z,100068.72
